Time;durP1;ratioP1;P1;durP2;ratioP2;P2;SDS_P1;SDS_P2;PMS_P1;PMS_P2;Temp;Humidity;BMP_temperature;BMP_pressure;BME280_temperature;BME280_humidity;BME280_pressure;Samples;Min_cycle;Max_cycle;Signal;HPM_P1;HPM_P2
2023/12/18 00:00:28;;;;;;;8.83;6.87;;;4.40;99.90;;;;;;5074676;28;20240;-80
2023/12/18 00:02:53;;;;;;;11.23;5.90;;;4.30;99.90;;;;;;5082257;28;20179;-80
2023/12/18 00:05:19;;;;;;;10.60;6.23;;;4.30;99.90;;;;;;5082109;28;20221;-80
2023/12/18 00:07:44;;;;;;;11.07;6.67;;;4.20;99.90;;;;;;5082364;28;20630;-80
2023/12/18 00:10:10;;;;;;;8.57;6.37;;;4.20;99.90;;;;;;5082047;28;20202;-80
2023/12/18 00:12:36;;;;;;;9.20;6.50;;;4.20;99.90;;;;;;5082659;28;20267;-80
2023/12/18 00:15:02;;;;;;;12.43;6.63;;;4.10;99.90;;;;;;5074902;28;20175;-79
2023/12/18 00:17:27;;;;;;;12.37;6.83;;;4.10;99.90;;;;;;5057454;28;20262;-80
2023/12/18 00:19:53;;;;;;;9.73;6.27;;;4.10;99.90;;;;;;5043497;28;20195;-80
2023/12/18 00:22:18;;;;;;;9.33;6.30;;;4.10;99.90;;;;;;5062333;28;20175;-80
2023/12/18 00:24:44;;;;;;;9.00;6.00;;;4.10;99.90;;;;;;5066796;28;20603;-79
2023/12/18 00:27:09;;;;;;;9.13;5.93;;;4.10;99.90;;;;;;5069101;28;20256;-79
2023/12/18 00:29:35;;;;;;;7.67;6.03;;;4.00;99.90;;;;;;5062389;28;20218;-79
2023/12/18 00:32:00;;;;;;;11.33;6.60;;;4.00;99.90;;;;;;5069849;28;20199;-80
2023/12/18 00:34:26;;;;;;;10.37;6.23;;;4.00;99.90;;;;;;5064120;28;20187;-80
2023/12/18 00:36:51;;;;;;;11.03;6.57;;;3.90;99.90;;;;;;5061308;28;20199;-80
2023/12/18 00:39:17;;;;;;;9.30;6.27;;;3.90;99.90;;;;;;5060102;28;20205;-79
2023/12/18 00:41:43;;;;;;;9.27;6.43;;;4.00;99.90;;;;;;5061477;28;20183;-80
2023/12/18 00:44:08;;;;;;;13.57;6.00;;;4.00;99.90;;;;;;5061255;28;20241;-80
2023/12/18 00:46:34;;;;;;;11.47;6.93;;;4.00;99.90;;;;;;5057502;28;20191;-80
2023/12/18 00:48:59;;;;;;;11.80;6.10;;;3.90;99.90;;;;;;5082017;28;20191;-79
2023/12/18 00:51:25;;;;;;;7.37;5.67;;;3.90;99.90;;;;;;5084106;28;20171;-80
2023/12/18 00:53:50;;;;;;;9.70;6.27;;;3.80;99.90;;;;;;5088874;28;20637;-79
2023/12/18 00:56:16;;;;;;;9.60;6.20;;;3.70;99.90;;;;;;5083755;28;20249;-80
2023/12/18 00:58:41;;;;;;;10.30;6.30;;;3.70;99.90;;;;;;5077810;28;20229;-80
2023/12/18 01:01:07;;;;;;;10.73;6.30;;;3.70;99.90;;;;;;5076885;28;20171;-79
2023/12/18 01:03:33;;;;;;;12.47;6.23;;;3.60;99.90;;;;;;5061635;28;20175;-80
2023/12/18 01:05:58;;;;;;;6.67;5.80;;;3.60;99.90;;;;;;5079330;28;20231;-79
2023/12/18 01:08:24;;;;;;;9.13;6.23;;;3.50;99.90;;;;;;5089196;28;20183;-79
2023/12/18 01:10:49;;;;;;;9.43;6.17;;;3.50;99.90;;;;;;5082875;28;20178;-80
2023/12/18 01:13:15;;;;;;;10.30;5.63;;;3.50;99.90;;;;;;5082847;28;20191;-80
2023/12/18 01:15:40;;;;;;;9.60;5.90;;;3.50;99.90;;;;;;5081490;28;20195;-80
2023/12/18 01:18:06;;;;;;;9.27;6.17;;;3.40;99.90;;;;;;5070890;28;20176;-80
2023/12/18 01:20:31;;;;;;;9.97;5.97;;;3.40;99.90;;;;;;5061096;28;20203;-80
2023/12/18 01:22:57;;;;;;;7.83;5.67;;;3.40;99.90;;;;;;5060607;28;20194;-80
2023/12/18 01:25:22;;;;;;;9.80;5.70;;;3.40;99.90;;;;;;5060017;28;20203;-79
2023/12/18 01:27:48;;;;;;;12.77;6.57;;;3.40;99.90;;;;;;5060298;28;20627;-80
2023/12/18 01:30:13;;;;;;;11.10;5.97;;;3.50;99.90;;;;;;5059679;28;20195;-80
2023/12/18 01:32:39;;;;;;;9.57;6.30;;;3.50;99.90;;;;;;5058409;28;20191;-80
2023/12/18 01:35:05;;;;;;;10.67;6.33;;;3.50;99.90;;;;;;5076930;28;20179;-80
2023/12/18 01:37:31;;;;;;;10.67;6.50;;;3.50;99.90;;;;;;5078895;28;20647;-80
2023/12/18 01:39:57;;;;;;;11.57;5.90;;;3.50;99.90;;;;;;5079900;28;20233;-79
2023/12/18 01:42:23;;;;;;;10.00;5.47;;;3.50;99.90;;;;;;5078894;28;20227;-79
2023/12/18 01:44:48;;;;;;;7.03;5.77;;;3.50;99.90;;;;;;5078032;28;20171;-79
2023/12/18 01:47:15;;;;;;;9.37;6.07;;;3.50;99.90;;;;;;5078390;28;20182;-79
2023/12/18 01:49:41;;;;;;;11.10;6.10;;;3.50;99.90;;;;;;5072142;28;20230;-79
2023/12/18 01:52:07;;;;;;;8.70;5.57;;;3.50;99.90;;;;;;5057507;28;20186;-79
2023/12/18 01:54:33;;;;;;;12.67;7.33;;;3.60;99.90;;;;;;5057256;28;20187;-79
2023/12/18 01:57:00;;;;;;;16.43;6.80;;;3.50;99.90;;;;;;5053509;28;20210;-79
2023/12/18 01:59:26;;;;;;;12.43;6.17;;;3.60;99.90;;;;;;5054166;28;20615;-80
2023/12/18 02:01:52;;;;;;;10.93;6.20;;;3.60;99.90;;;;;;5055104;28;20250;-80
2023/12/18 02:04:19;;;;;;;14.57;6.50;;;3.70;99.90;;;;;;5054960;28;20174;-79
2023/12/18 02:06:46;;;;;;;10.03;5.60;;;3.70;99.90;;;;;;5063950;28;20175;-79
2023/12/18 02:09:12;;;;;;;8.87;5.80;;;3.70;99.90;;;;;;5075048;28;20201;-79
2023/12/18 02:11:38;;;;;;;14.33;6.10;;;3.80;99.90;;;;;;5075785;28;20183;-80
2023/12/18 02:14:05;;;;;;;10.70;5.60;;;3.90;99.90;;;;;;5075188;28;20553;-79
2023/12/18 02:16:31;;;;;;;16.13;5.87;;;3.90;99.90;;;;;;5075485;28;20230;-79
2023/12/18 02:18:56;;;;;;;11.73;6.37;;;3.90;99.90;;;;;;5075581;28;20210;-79
2023/12/18 02:21:22;;;;;;;13.33;5.80;;;3.90;99.90;;;;;;5075252;28;20190;-79
2023/12/18 02:23:49;;;;;;;11.73;5.43;;;3.90;99.90;;;;;;5057932;28;20250;-80
2023/12/18 02:26:15;;;;;;;11.63;5.50;;;4.00;99.90;;;;;;5056161;28;20225;-80
2023/12/18 02:28:43;;;;;;;13.93;6.33;;;4.00;99.90;;;;;;5056473;28;20191;-79
2023/12/18 02:31:11;;;;;;;10.43;5.90;;;4.00;99.90;;;;;;5055943;28;20175;-80
2023/12/18 02:33:36;;;;;;;12.43;5.97;;;4.00;99.90;;;;;;5056672;28;20623;-80
2023/12/18 02:36:02;;;;;;;12.33;6.20;;;4.10;99.90;;;;;;5056345;28;20282;-80
2023/12/18 02:38:27;;;;;;;9.10;5.43;;;4.10;99.90;;;;;;5056446;28;20679;-80
2023/12/18 02:40:53;;;;;;;18.20;6.13;;;4.10;99.90;;;;;;5056468;28;20231;-80
2023/12/18 02:43:18;;;;;;;11.50;5.63;;;4.10;99.90;;;;;;5068608;28;20620;-79
2023/12/18 02:45:44;;;;;;;17.47;5.83;;;4.20;99.90;;;;;;5067759;28;20218;-80
2023/12/18 02:48:09;;;;;;;14.13;5.63;;;4.20;99.90;;;;;;5055844;28;20585;-80
2023/12/18 02:50:35;;;;;;;15.87;6.13;;;4.20;99.90;;;;;;5056789;28;20179;-80
2023/12/18 02:53:00;;;;;;;8.70;5.70;;;4.30;99.90;;;;;;5058945;28;20226;-80
2023/12/18 02:55:26;;;;;;;14.10;6.13;;;4.40;99.90;;;;;;5060334;28;20203;-80
2023/12/18 02:57:51;;;;;;;11.50;5.33;;;4.30;99.90;;;;;;5061107;28;20251;-79
2023/12/18 03:00:17;;;;;;;13.70;5.87;;;4.30;99.90;;;;;;5059830;28;20737;-80
2023/12/18 03:02:44;;;;;;;8.53;5.60;;;4.30;99.90;;;;;;5061044;28;20646;-80
2023/12/18 03:05:10;;;;;;;14.30;6.67;;;4.40;99.90;;;;;;5059860;28;20302;-80
2023/12/18 03:07:35;;;;;;;13.07;5.37;;;4.40;99.90;;;;;;5060743;28;20198;-80
2023/12/18 03:10:00;;;;;;;11.93;5.87;;;4.40;99.90;;;;;;5060065;28;20196;-80
2023/12/18 03:12:26;;;;;;;16.73;5.60;;;4.40;99.90;;;;;;5060762;28;20190;-79
2023/12/18 03:14:51;;;;;;;13.93;5.40;;;4.40;99.90;;;;;;5061311;28;20176;-80
2023/12/18 03:17:17;;;;;;;13.17;6.17;;;4.40;99.90;;;;;;5061030;28;20199;-80
2023/12/18 03:19:42;;;;;;;12.37;5.87;;;4.40;99.90;;;;;;5060765;28;20209;-80
2023/12/18 03:22:08;;;;;;;10.67;5.53;;;4.40;99.90;;;;;;5060996;28;20179;-80
2023/12/18 03:24:33;;;;;;;9.20;5.73;;;4.50;99.90;;;;;;5061508;28;20261;-80
2023/12/18 03:26:59;;;;;;;13.87;6.07;;;4.50;99.90;;;;;;5060323;28;20671;-79
2023/12/18 03:29:25;;;;;;;15.80;6.03;;;4.50;99.90;;;;;;5060257;28;20195;-79
2023/12/18 03:31:50;;;;;;;12.33;5.90;;;4.60;99.90;;;;;;5055544;28;20199;-79
2023/12/18 03:34:16;;;;;;;11.47;6.00;;;4.50;99.90;;;;;;5056411;28;20234;-79
2023/12/18 03:36:41;;;;;;;11.00;5.53;;;4.50;99.90;;;;;;5056962;28;20273;-79
2023/12/18 03:39:07;;;;;;;11.57;5.70;;;4.50;99.90;;;;;;5057311;28;20278;-79
2023/12/18 03:41:32;;;;;;;14.50;6.23;;;4.50;99.90;;;;;;5059176;28;20267;-80
2023/12/18 03:43:58;;;;;;;10.63;5.40;;;4.50;99.90;;;;;;5060762;28;20176;-80
2023/12/18 03:46:24;;;;;;;12.80;5.87;;;4.50;99.90;;;;;;5061307;28;20171;-80
2023/12/18 03:48:50;;;;;;;14.37;6.77;;;4.50;99.90;;;;;;5061075;28;20290;-80
2023/12/18 03:51:15;;;;;;;12.97;6.90;;;4.50;99.90;;;;;;5062184;28;20218;-80
2023/12/18 03:53:41;;;;;;;11.17;6.10;;;4.50;99.90;;;;;;5062768;28;20254;-79
2023/12/18 03:56:06;;;;;;;17.10;7.10;;;4.50;99.90;;;;;;5061528;28;20203;-80
2023/12/18 03:58:32;;;;;;;16.83;6.60;;;4.50;99.90;;;;;;5061559;28;20225;-80
2023/12/18 04:00:57;;;;;;;12.10;6.50;;;4.50;99.90;;;;;;5066724;28;20198;-80
2023/12/18 04:03:23;;;;;;;9.40;5.60;;;4.50;99.90;;;;;;5067702;28;20254;-80
2023/12/18 04:05:49;;;;;;;12.27;6.50;;;4.50;99.90;;;;;;5045747;28;20191;-80
2023/12/18 04:08:14;;;;;;;10.87;5.73;;;4.60;99.90;;;;;;5061876;28;20205;-80
2023/12/18 04:10:40;;;;;;;9.77;6.30;;;4.50;99.90;;;;;;5045761;28;20206;-80
2023/12/18 04:13:05;;;;;;;14.03;5.57;;;4.50;99.90;;;;;;5065623;28;20176;-80
2023/12/18 04:15:31;;;;;;;11.50;5.70;;;4.60;99.90;;;;;;5069543;28;20209;-79
2023/12/18 04:17:57;;;;;;;10.53;5.53;;;4.60;99.90;;;;;;5066299;28;20211;-79
2023/12/18 04:20:23;;;;;;;10.70;6.40;;;4.60;99.90;;;;;;5058020;28;20257;-79
2023/12/18 04:22:49;;;;;;;15.80;5.77;;;4.60;99.90;;;;;;5058693;28;20180;-80
2023/12/18 04:25:15;;;;;;;14.40;6.00;;;4.60;99.90;;;;;;5058649;28;20184;-79
2023/12/18 04:27:41;;;;;;;12.30;6.33;;;4.60;99.90;;;;;;5058999;28;20171;-79
2023/12/18 04:30:07;;;;;;;14.33;6.57;;;4.70;99.90;;;;;;5058107;28;20270;-79
2023/12/18 04:32:33;;;;;;;14.33;7.33;;;4.70;99.90;;;;;;5058870;28;20237;-79
2023/12/18 04:34:58;;;;;;;16.90;8.03;;;4.70;99.90;;;;;;5058916;28;20207;-80
2023/12/18 04:37:24;;;;;;;14.40;8.43;;;4.80;99.90;;;;;;5059067;28;20294;-79
2023/12/18 04:39:49;;;;;;;18.13;8.63;;;4.80;99.90;;;;;;5058883;28;20208;-79
2023/12/18 04:42:15;;;;;;;14.73;8.47;;;4.80;99.90;;;;;;5040078;28;20175;-80
2023/12/18 04:44:40;;;;;;;12.47;8.20;;;4.90;99.90;;;;;;5058564;28;20191;-79
2023/12/18 04:47:06;;;;;;;17.30;10.10;;;4.90;99.90;;;;;;5058135;28;20182;-79
2023/12/18 04:49:31;;;;;;;15.47;9.00;;;4.90;99.90;;;;;;5058448;28;20274;-80
2023/12/18 04:51:57;;;;;;;16.63;9.23;;;4.90;99.90;;;;;;5058493;28;20176;-80
2023/12/18 04:54:22;;;;;;;14.90;8.97;;;4.90;99.90;;;;;;5057918;28;20175;-79
2023/12/18 04:56:48;;;;;;;15.07;9.20;;;4.90;99.90;;;;;;5059440;28;20690;-79
2023/12/18 04:59:14;;;;;;;18.77;9.23;;;4.90;99.90;;;;;;5058565;28;20210;-79
2023/12/18 05:01:39;;;;;;;19.17;10.07;;;4.80;99.90;;;;;;5058448;28;20167;-79
2023/12/18 05:04:05;;;;;;;17.23;9.80;;;4.90;99.90;;;;;;5057290;28;20168;-80
2023/12/18 05:06:30;;;;;;;18.87;10.03;;;4.80;99.90;;;;;;5058152;28;20551;-77
2023/12/18 05:08:56;;;;;;;15.23;10.50;;;4.80;99.90;;;;;;5055957;28;20690;-78
2023/12/18 05:11:25;;;;;;;21.43;12.53;;;4.80;99.90;;;;;;5056689;28;20645;-78
2023/12/18 05:13:51;;;;;;;21.70;12.50;;;4.90;99.90;;;;;;5056505;28;20171;-78
2023/12/18 05:16:18;;;;;;;20.83;12.03;;;4.90;99.90;;;;;;5055591;28;20218;-80
2023/12/18 05:18:44;;;;;;;19.33;12.87;;;4.90;99.90;;;;;;5055509;28;20258;-77
2023/12/18 05:21:11;;;;;;;20.57;12.47;;;5.00;99.90;;;;;;5056039;28;20591;-78
2023/12/18 05:23:37;;;;;;;20.83;13.37;;;5.00;99.90;;;;;;5055598;28;20178;-78
2023/12/18 05:26:03;;;;;;;22.53;12.60;;;5.00;99.90;;;;;;5056328;28;20183;-78
2023/12/18 05:28:28;;;;;;;20.20;12.27;;;5.00;99.90;;;;;;5057043;28;20207;-79
2023/12/18 05:30:54;;;;;;;20.87;12.97;;;4.90;99.90;;;;;;5067271;28;20243;-78
2023/12/18 05:33:20;;;;;;;23.63;12.60;;;4.90;99.90;;;;;;5058206;28;20249;-79
2023/12/18 05:35:45;;;;;;;19.50;12.73;;;4.90;99.90;;;;;;5057247;28;20199;-78
2023/12/18 05:38:11;;;;;;;19.77;12.57;;;4.90;99.90;;;;;;5056868;28;20205;-78
2023/12/18 05:40:37;;;;;;;23.87;12.53;;;4.90;99.90;;;;;;5057263;28;20195;-80
2023/12/18 05:43:04;;;;;;;19.20;12.27;;;4.80;99.90;;;;;;5060525;28;20673;-80
2023/12/18 05:45:31;;;;;;;23.50;12.73;;;4.80;99.90;;;;;;5060701;28;20198;-80
2023/12/18 05:47:57;;;;;;;18.13;12.00;;;4.80;99.90;;;;;;5060211;28;20255;-80
2023/12/18 05:50:22;;;;;;;21.20;13.03;;;4.80;99.90;;;;;;5058386;28;20227;-80
2023/12/18 05:52:48;;;;;;;16.67;11.87;;;4.90;99.90;;;;;;5058090;28;20239;-79
2023/12/18 05:55:13;;;;;;;17.70;11.77;;;4.80;99.90;;;;;;5058807;28;20182;-80
2023/12/18 05:57:41;;;;;;;22.13;13.37;;;4.90;99.90;;;;;;5059196;28;20175;-79
2023/12/18 06:00:07;;;;;;;19.03;11.40;;;4.90;99.90;;;;;;5059161;28;20191;-79
2023/12/18 06:02:33;;;;;;;21.57;13.23;;;4.80;99.90;;;;;;5059308;28;20251;-79
2023/12/18 06:04:59;;;;;;;20.93;12.90;;;4.90;99.90;;;;;;5059933;28;20167;-79
2023/12/18 06:07:25;;;;;;;20.23;13.20;;;4.80;99.90;;;;;;5060079;28;20203;-79
2023/12/18 06:09:50;;;;;;;21.40;14.40;;;4.90;99.90;;;;;;5059587;28;20214;-80
2023/12/18 06:12:16;;;;;;;24.33;14.80;;;4.80;99.90;;;;;;5042914;28;20176;-79
2023/12/18 06:14:41;;;;;;;21.07;13.00;;;4.90;99.90;;;;;;5061356;28;20193;-79
2023/12/18 06:17:08;;;;;;;22.40;13.37;;;4.90;99.90;;;;;;5075493;28;20277;-79
2023/12/18 06:19:34;;;;;;;18.17;13.17;;;4.90;99.90;;;;;;5077587;28;20695;-79
2023/12/18 06:22:01;;;;;;;21.50;12.60;;;4.80;99.90;;;;;;5062391;28;20171;-79
2023/12/18 06:24:26;;;;;;;20.60;13.53;;;4.80;99.90;;;;;;5062897;28;20237;-80
2023/12/18 06:26:53;;;;;;;20.33;13.27;;;4.80;99.90;;;;;;5063060;28;20184;-78
2023/12/18 06:29:19;;;;;;;20.53;12.67;;;4.80;99.90;;;;;;5060935;28;20257;-79
2023/12/18 06:31:44;;;;;;;18.73;13.87;;;4.80;99.90;;;;;;5060407;28;20218;-79
2023/12/18 06:34:11;;;;;;;25.20;14.80;;;4.80;99.90;;;;;;5066851;28;20175;-79
2023/12/18 06:36:37;;;;;;;24.57;15.20;;;4.80;99.90;;;;;;5066152;28;20278;-80
2023/12/18 06:39:03;;;;;;;20.67;14.27;;;4.80;99.90;;;;;;5060932;28;20223;-78
2023/12/18 06:41:28;;;;;;;23.33;13.53;;;4.80;99.90;;;;;;5060776;28;20635;-79
2023/12/18 06:43:54;;;;;;;22.80;13.90;;;4.80;99.90;;;;;;5060182;28;20195;-79
2023/12/18 06:46:19;;;;;;;22.80;13.17;;;4.80;99.90;;;;;;5061157;28;20618;-79
2023/12/18 06:48:45;;;;;;;20.70;13.67;;;4.80;99.90;;;;;;5060441;28;20246;-79
2023/12/18 06:51:10;;;;;;;24.00;13.90;;;4.80;99.90;;;;;;5063485;28;20186;-78
2023/12/18 06:53:36;;;;;;;18.43;14.13;;;4.80;99.90;;;;;;5080367;28;20171;-79
2023/12/18 06:56:02;;;;;;;20.70;13.53;;;4.80;99.90;;;;;;5081257;28;20293;-79
2023/12/18 06:58:27;;;;;;;18.80;13.20;;;4.80;99.90;;;;;;5081171;28;20195;-78
2023/12/18 07:00:53;;;;;;;17.57;12.90;;;4.80;99.90;;;;;;5078664;28;20642;-78
2023/12/18 07:03:19;;;;;;;22.93;13.87;;;4.80;99.90;;;;;;5060955;28;20246;-79
2023/12/18 07:05:44;;;;;;;21.73;13.90;;;4.80;99.90;;;;;;5061601;28;20191;-79
2023/12/18 07:08:10;;;;;;;24.87;13.70;;;4.80;99.90;;;;;;5060986;28;20254;-79
2023/12/18 07:10:36;;;;;;;24.97;14.67;;;4.80;99.90;;;;;;5061396;28;20176;-79
2023/12/18 07:13:01;;;;;;;20.47;13.13;;;4.80;99.90;;;;;;5061512;28;20259;-78
2023/12/18 07:15:27;;;;;;;19.53;13.40;;;4.80;99.90;;;;;;5060953;28;20617;-78
2023/12/18 07:17:53;;;;;;;30.10;13.40;;;4.80;99.90;;;;;;5061693;28;20589;-78
2023/12/18 07:20:18;;;;;;;30.23;12.90;;;4.80;99.90;;;;;;5062993;28;20286;-79
2023/12/18 07:22:44;;;;;;;21.87;13.27;;;4.80;99.90;;;;;;5067847;28;20168;-80
2023/12/18 07:25:10;;;;;;;25.03;13.77;;;4.80;99.90;;;;;;5065870;28;20176;-80
2023/12/18 07:27:36;;;;;;;20.03;12.60;;;4.80;99.90;;;;;;5064332;28;20547;-80
2023/12/18 07:30:03;;;;;;;20.47;13.90;;;4.80;99.90;;;;;;5063908;28;20231;-80
2023/12/18 07:32:30;;;;;;;17.97;12.93;;;4.80;99.90;;;;;;5062827;28;20192;-80
2023/12/18 07:34:59;;;;;;;22.40;14.53;;;4.80;99.90;;;;;;5073765;28;20191;-80
2023/12/18 07:37:25;;;;;;;25.93;14.07;;;4.80;99.90;;;;;;5083867;28;20191;-79
2023/12/18 07:39:51;;;;;;;20.90;14.13;;;4.80;99.90;;;;;;5086079;28;20214;-78
2023/12/18 07:42:16;;;;;;;30.07;14.80;;;4.80;99.90;;;;;;5084592;28;20171;-80
2023/12/18 07:44:42;;;;;;;18.63;13.27;;;4.80;99.90;;;;;;5081523;28;20163;-79
2023/12/18 07:47:07;;;;;;;21.70;14.77;;;4.80;99.90;;;;;;5077602;28;20190;-79
2023/12/18 07:49:35;;;;;;;19.20;13.87;;;4.70;99.90;;;;;;5060781;28;20230;-78
2023/12/18 07:52:01;;;;;;;21.93;13.93;;;4.70;99.90;;;;;;5059880;28;20263;-78
2023/12/18 07:54:26;;;;;;;23.23;14.17;;;4.70;99.90;;;;;;5059305;28;20204;-79
2023/12/18 07:56:52;;;;;;;23.57;14.40;;;4.70;99.90;;;;;;5059608;28;20203;-78
2023/12/18 07:59:19;;;;;;;26.10;15.83;;;4.70;99.90;;;;;;5058653;28;20211;-79
2023/12/18 08:01:45;;;;;;;22.53;14.70;;;4.70;99.90;;;;;;5059043;28;20178;-79
2023/12/18 08:04:11;;;;;;;19.37;14.40;;;4.70;99.90;;;;;;5058528;28;20175;-78
2023/12/18 08:06:37;;;;;;;23.93;14.90;;;4.70;99.90;;;;;;5058530;28;20183;-79
2023/12/18 08:09:02;;;;;;;23.67;13.97;;;4.70;99.90;;;;;;5058929;28;20196;-78
2023/12/18 08:11:28;;;;;;;23.97;15.77;;;4.70;99.90;;;;;;5058991;28;20177;-78
2023/12/18 08:13:54;;;;;;;22.10;14.83;;;4.70;99.90;;;;;;5065996;28;20179;-78
2023/12/18 08:16:19;;;;;;;20.67;14.47;;;4.70;99.90;;;;;;5084917;28;20202;-80
2023/12/18 08:18:46;;;;;;;24.00;15.07;;;4.70;99.90;;;;;;5089079;28;20234;-79
2023/12/18 08:21:13;;;;;;;29.33;16.33;;;4.70;99.90;;;;;;5090924;28;20186;-79
2023/12/18 08:23:42;;;;;;;24.53;15.97;;;4.70;99.90;;;;;;5077743;28;20180;-79
2023/12/18 08:26:12;;;;;;;25.07;15.87;;;4.70;99.90;;;;;;5063364;28;20167;-79
2023/12/18 08:28:41;;;;;;;24.03;16.83;;;4.70;99.90;;;;;;5062341;28;20191;-79
2023/12/18 08:31:07;;;;;;;25.50;16.57;;;4.70;99.90;;;;;;5062557;28;20195;-79
2023/12/18 08:33:32;;;;;;;31.07;17.30;;;4.70;99.90;;;;;;5061624;28;20657;-79
2023/12/18 08:35:58;;;;;;;26.63;17.10;;;4.70;99.90;;;;;;5062241;28;20199;-79
2023/12/18 08:38:24;;;;;;;24.73;16.93;;;4.70;99.90;;;;;;5061064;28;20176;-79
2023/12/18 08:40:49;;;;;;;26.50;17.17;;;4.70;99.90;;;;;;5061655;28;20179;-79
2023/12/18 08:43:14;;;;;;;25.90;18.03;;;4.70;99.90;;;;;;5061536;28;20183;-79
2023/12/18 08:45:40;;;;;;;26.40;18.37;;;4.70;99.90;;;;;;5067450;28;20187;-79
2023/12/18 08:48:06;;;;;;;23.33;17.40;;;4.70;99.90;;;;;;5080920;28;20199;-79
2023/12/18 08:50:32;;;;;;;31.90;18.13;;;4.80;99.90;;;;;;5080774;28;20214;-79
2023/12/18 08:52:58;;;;;;;26.53;17.40;;;4.70;99.90;;;;;;5080557;28;20642;-79
2023/12/18 08:55:23;;;;;;;32.10;18.13;;;4.80;99.90;;;;;;5056943;28;20241;-79
2023/12/18 08:57:49;;;;;;;28.90;17.97;;;4.80;99.90;;;;;;5041568;28;20572;-79
2023/12/18 09:00:15;;;;;;;25.47;16.50;;;4.80;99.90;;;;;;5059917;28;20286;-79
2023/12/18 09:02:40;;;;;;;30.00;17.97;;;4.80;99.90;;;;;;5059925;28;20180;-79
2023/12/18 09:05:07;;;;;;;24.90;16.80;;;4.80;99.90;;;;;;5059839;28;20204;-79
2023/12/18 09:07:32;;;;;;;25.63;16.87;;;4.80;99.90;;;;;;5059165;28;20245;-78
2023/12/18 09:09:58;;;;;;;24.37;16.83;;;4.80;99.90;;;;;;5058644;28;20191;-79
2023/12/18 09:12:23;;;;;;;29.57;17.67;;;4.90;99.90;;;;;;5059787;28;20179;-79
2023/12/18 09:14:48;;;;;;;29.87;16.87;;;4.90;99.90;;;;;;5058709;28;20185;-79
2023/12/18 09:17:14;;;;;;;22.30;15.40;;;4.90;99.90;;;;;;5076618;28;20213;-79
2023/12/18 09:19:40;;;;;;;23.60;15.93;;;5.00;99.90;;;;;;5078476;28;20187;-79
2023/12/18 09:22:05;;;;;;;25.27;15.23;;;5.00;99.90;;;;;;5078834;28;20262;-79
2023/12/18 09:24:31;;;;;;;26.70;14.97;;;5.00;99.90;;;;;;5078553;28;20174;-78
2023/12/18 09:26:57;;;;;;;23.03;15.23;;;5.00;99.90;;;;;;5062271;28;20187;-79
2023/12/18 09:29:23;;;;;;;22.83;14.27;;;5.00;99.90;;;;;;5058825;28;20195;-79
2023/12/18 09:31:49;;;;;;;22.73;14.03;;;5.00;99.90;;;;;;5058404;28;20793;-79
2023/12/18 09:34:15;;;;;;;27.63;15.80;;;5.10;99.90;;;;;;5058421;28;20566;-79
2023/12/18 09:36:40;;;;;;;24.20;14.27;;;5.10;99.90;;;;;;5058063;28;20230;-79
2023/12/18 09:39:06;;;;;;;27.10;15.37;;;5.10;99.90;;;;;;5058307;28;20685;-79
2023/12/18 09:41:33;;;;;;;24.23;13.67;;;5.10;99.90;;;;;;5058194;28;20199;-79
2023/12/18 09:43:59;;;;;;;21.23;13.50;;;5.20;99.90;;;;;;5057946;28;20204;-78
2023/12/18 09:46:25;;;;;;;22.10;14.53;;;5.20;99.90;;;;;;5056888;28;20191;-79
2023/12/18 09:48:52;;;;;;;21.67;13.27;;;5.30;99.90;;;;;;5057772;28;20211;-78
2023/12/18 09:51:24;;;;;;;21.03;13.30;;;5.30;99.90;;;;;;5057912;28;20203;-79
2023/12/18 09:53:51;;;;;;;24.03;13.20;;;5.40;99.90;;;;;;5057850;28;20160;-79
2023/12/18 09:56:21;;;;;;;20.53;13.00;;;5.30;99.90;;;;;;5057958;28;20211;-79
2023/12/18 09:58:47;;;;;;;18.57;13.30;;;5.40;99.90;;;;;;5057966;28;20195;-79
2023/12/18 10:01:13;;;;;;;20.37;14.40;;;5.40;99.90;;;;;;5058376;28;20183;-79
2023/12/18 10:03:39;;;;;;;20.87;14.70;;;5.40;99.90;;;;;;5057953;28;20254;-79
2023/12/18 10:06:04;;;;;;;24.40;14.17;;;5.40;99.90;;;;;;5058216;28;20218;-79
2023/12/18 10:08:30;;;;;;;21.83;14.23;;;5.40;99.90;;;;;;5058302;28;20261;-78
2023/12/18 10:10:56;;;;;;;18.63;14.23;;;5.40;99.90;;;;;;5061699;28;20524;-80
2023/12/18 10:13:22;;;;;;;21.90;14.27;;;5.40;99.90;;;;;;5062620;28;20499;-79
2023/12/18 10:15:47;;;;;;;23.33;15.20;;;5.50;99.90;;;;;;5061873;28;20204;-80
2023/12/18 10:18:16;;;;;;;22.23;14.27;;;5.50;99.90;;;;;;5060753;28;20182;-80
2023/12/18 10:20:42;;;;;;;20.53;13.83;;;5.50;99.90;;;;;;5060484;28;20711;-80
2023/12/18 10:23:08;;;;;;;20.57;13.27;;;5.40;99.90;;;;;;5060576;28;20190;-80
2023/12/18 10:25:35;;;;;;;21.37;14.43;;;5.50;99.90;;;;;;5061027;28;20258;-79
2023/12/18 10:28:00;;;;;;;21.13;13.60;;;5.50;99.90;;;;;;5079654;28;20622;-78
2023/12/18 10:30:29;;;;;;;19.90;13.63;;;5.50;99.90;;;;;;5079314;28;20202;-78
2023/12/18 10:32:56;;;;;;;18.70;13.43;;;5.50;99.90;;;;;;5079258;28;20669;-79
2023/12/18 10:35:22;;;;;;;20.60;14.27;;;5.50;99.90;;;;;;5077518;28;20229;-79
2023/12/18 10:37:54;;;;;;;25.87;14.77;;;5.50;99.90;;;;;;5060179;28;20647;-79
2023/12/18 10:40:23;;;;;;;20.67;14.20;;;5.50;99.90;;;;;;5061053;28;20196;-79
2023/12/18 10:43:22;;;;;;;20.13;13.23;;;5.50;99.90;;;;;;5061227;28;20598;-79
2023/12/18 10:45:49;;;;;;;18.73;12.97;;;5.60;99.90;;;;;;5041752;28;20248;-78
2023/12/18 10:48:17;;;;;;;21.37;13.90;;;5.40;99.90;;;;;;5064966;28;20186;-78
2023/12/18 10:50:44;;;;;;;18.73;13.67;;;5.60;99.90;;;;;;5061689;28;20233;-79
2023/12/18 10:53:11;;;;;;;17.27;12.67;;;5.60;99.90;;;;;;5057145;28;20175;-79
2023/12/18 10:55:38;;;;;;;18.80;13.03;;;5.60;99.90;;;;;;5057994;28;20194;-79
2023/12/18 10:58:04;;;;;;;18.60;13.17;;;5.60;99.90;;;;;;5057497;28;20172;-79
2023/12/18 11:00:32;;;;;;;18.60;12.27;;;5.60;99.90;;;;;;5056305;28;20203;-79
2023/12/18 11:02:59;;;;;;;18.50;12.03;;;5.60;99.90;;;;;;5077733;28;20183;-79
2023/12/18 11:05:25;;;;;;;19.70;11.60;;;5.60;99.90;;;;;;5060004;28;20665;-79
2023/12/18 11:07:51;;;;;;;16.40;10.73;;;5.60;99.90;;;;;;5057721;28;20175;-79
2023/12/18 11:10:18;;;;;;;19.17;10.97;;;5.60;99.90;;;;;;5057912;28;20191;-78
2023/12/18 11:12:44;;;;;;;16.80;10.53;;;5.60;99.90;;;;;;5057348;28;20210;-79
2023/12/18 11:15:20;;;;;;;14.00;9.97;;;5.60;99.90;;;;;;5061448;28;20176;-79
2023/12/18 11:17:57;;;;;;;16.93;9.67;;;5.70;99.90;;;;;;5061136;28;20202;-78
2023/12/18 11:20:30;;;;;;;17.90;11.47;;;5.70;99.90;;;;;;5062235;28;20262;-79
2023/12/18 11:22:57;;;;;;;16.27;10.03;;;5.70;99.90;;;;;;5062311;28;20245;-79
2023/12/18 11:25:30;;;;;;;14.30;9.43;;;5.70;99.90;;;;;;5062093;28;20225;-78
2023/12/18 11:27:56;;;;;;;15.73;10.30;;;5.70;99.90;;;;;;5061513;28;20574;-78
2023/12/18 11:30:33;;;;;;;17.17;10.63;;;5.70;99.90;;;;;;5061962;28;20203;-79
2023/12/18 11:33:03;;;;;;;13.40;9.07;;;5.70;99.90;;;;;;5062158;28;20226;-79
2023/12/18 11:35:36;;;;;;;15.57;9.70;;;5.70;99.90;;;;;;5062545;28;20222;-79
2023/12/18 11:38:21;;;;;;;14.13;8.57;;;5.70;99.90;;;;;;5063011;28;20183;-79
2023/12/18 11:40:52;;;;;;;13.10;8.70;;;5.70;99.90;;;;;;5062565;28;20243;-79
2023/12/18 11:43:37;;;;;;;13.80;8.83;;;5.80;99.90;;;;;;5063220;28;20192;-78
2023/12/18 11:46:04;;;;;;;13.90;8.53;;;5.80;99.90;;;;;;5071972;28;20212;-78
2023/12/18 11:48:31;;;;;;;14.37;9.53;;;5.80;99.90;;;;;;5087052;28;20186;-79
2023/12/18 11:50:56;;;;;;;13.27;8.53;;;5.80;99.90;;;;;;5081598;28;20218;-79
2023/12/18 11:53:22;;;;;;;18.97;8.77;;;5.80;99.90;;;;;;5085402;28;20187;-80
2023/12/18 11:55:53;;;;;;;12.90;8.20;;;5.80;99.90;;;;;;5077149;28;20208;-80
2023/12/18 11:58:20;;;;;;;14.70;8.77;;;5.80;99.90;;;;;;5064567;28;20180;-80
2023/12/18 12:00:46;;;;;;;11.83;8.53;;;5.80;99.90;;;;;;5063565;28;20199;-80
2023/12/18 12:03:15;;;;;;;11.80;7.87;;;5.80;99.90;;;;;;5062459;28;20179;-80
2023/12/18 12:05:41;;;;;;;13.43;7.70;;;5.80;99.90;;;;;;5063071;28;20184;-79
2023/12/18 12:08:08;;;;;;;13.23;8.30;;;5.80;99.90;;;;;;5062489;28;20251;-78
2023/12/18 12:10:45;;;;;;;11.97;7.90;;;5.80;99.90;;;;;;5062103;28;20207;-79
2023/12/18 12:13:22;;;;;;;14.60;8.30;;;5.80;99.90;;;;;;5061864;28;20688;-79
2023/12/18 12:15:58;;;;;;;12.47;8.17;;;5.90;99.90;;;;;;5059944;28;20206;-79
2023/12/18 12:18:33;;;;;;;11.80;8.60;;;5.90;99.90;;;;;;5060388;28;20175;-79
2023/12/18 12:20:59;;;;;;;12.57;8.57;;;5.90;99.90;;;;;;5061141;28;20318;-78
2023/12/18 12:23:25;;;;;;;17.70;9.47;;;5.90;99.90;;;;;;5061015;28;20199;-79
2023/12/18 12:25:52;;;;;;;12.67;9.40;;;5.90;99.90;;;;;;5059004;28;20180;-79
2023/12/18 12:28:20;;;;;;;14.83;9.50;;;5.90;99.90;;;;;;5060273;28;20175;-79
2023/12/18 12:30:46;;;;;;;16.47;9.70;;;5.90;99.90;;;;;;5059634;28;20275;-80
2023/12/18 12:33:12;;;;;;;15.43;9.37;;;5.90;99.90;;;;;;5041385;28;20227;-79
2023/12/18 12:35:38;;;;;;;14.53;8.67;;;5.90;99.90;;;;;;5059265;28;20623;-79
2023/12/18 12:38:05;;;;;;;15.73;9.80;;;5.90;99.90;;;;;;5059402;28;20172;-78